createdAt,value
2023-08-18T00:00:09.642Z,99.90
2023-08-18T00:02:37.041Z,99.90
2023-08-18T00:05:03.934Z,99.90
2023-08-18T00:12:25.554Z,99.90
2023-08-18T00:14:53.168Z,99.90
2023-08-18T00:19:48.254Z,99.90
2023-08-18T00:22:14.989Z,99.90
2023-08-18T00:27:08.882Z,99.90
2023-08-18T00:36:57.704Z,99.90
2023-08-18T00:44:18.845Z,99.90
2023-08-18T00:46:46.215Z,99.90
2023-08-18T00:49:14.415Z,99.90
2023-08-18T00:51:42.346Z,99.90
2023-08-18T00:54:09.899Z,99.90
2023-08-18T00:56:37.430Z,99.90
2023-08-18T01:01:36.579Z,99.90
2023-08-18T01:04:04.209Z,99.90
2023-08-18T01:06:30.940Z,99.90
2023-08-18T01:08:57.733Z,99.90
2023-08-18T01:11:51.462Z,99.90
2023-08-18T01:14:36.413Z,99.90
2023-08-18T01:17:11.349Z,99.90
2023-08-18T01:19:38.676Z,99.90
2023-08-18T01:22:13.031Z,99.90
2023-08-18T01:24:42.773Z,99.90
2023-08-18T01:27:09.564Z,99.90
2023-08-18T01:29:36.959Z,99.90
2023-08-18T01:32:07.443Z,99.90
2023-08-18T01:34:38.470Z,99.90
2023-08-18T01:37:05.346Z,99.90
2023-08-18T01:39:34.451Z,99.90
2023-08-18T01:42:02.988Z,99.90
2023-08-18T01:44:29.702Z,99.90
2023-08-18T01:46:56.546Z,99.90
2023-08-18T01:51:50.528Z,99.90
2023-08-18T01:56:44.348Z,99.90
2023-08-18T02:06:32.642Z,99.90
2023-08-18T02:11:26.541Z,99.90
2023-08-18T02:13:53.280Z,99.90
2023-08-18T02:18:48.845Z,99.90
2023-08-18T02:23:43.245Z,99.90
2023-08-18T02:28:37.103Z,99.90
2023-08-18T02:31:08.397Z,99.90
2023-08-18T02:33:36.230Z,99.90
2023-08-18T02:36:03.230Z,99.90
2023-08-18T02:40:57.726Z,99.90
2023-08-18T02:45:57.239Z,99.90
2023-08-18T02:48:28.807Z,99.90
2023-08-18T02:51:06.353Z,99.90
2023-08-18T02:53:33.814Z,99.90
2023-08-18T02:58:29.189Z,99.90
2023-08-18T03:00:57.070Z,99.90
2023-08-18T03:03:26.819Z,99.90
2023-08-18T03:05:54.229Z,99.90
2023-08-18T03:10:59.244Z,99.90
2023-08-18T03:13:26.610Z,99.90
2023-08-18T03:23:16.857Z,99.90
2023-08-18T03:25:44.799Z,99.90
2023-08-18T03:28:12.354Z,99.90
2023-08-18T03:30:39.842Z,99.90
2023-08-18T03:33:07.173Z,99.90
2023-08-18T03:35:36.794Z,99.90
2023-08-18T03:38:04.677Z,99.90
2023-08-18T03:40:32.044Z,99.90
2023-08-18T03:42:58.724Z,99.90
2023-08-18T03:45:25.658Z,99.90
2023-08-18T03:50:22.621Z,99.90
2023-08-18T03:55:17.688Z,99.90
2023-08-18T04:00:13.009Z,99.90
2023-08-18T04:07:34.163Z,99.90
2023-08-18T04:10:00.896Z,99.90
2023-08-18T04:14:55.249Z,99.90
2023-08-18T04:24:45.815Z,99.90
2023-08-18T04:32:06.795Z,99.90
2023-08-18T04:44:22.022Z,99.90
2023-08-18T04:49:15.973Z,99.90
2023-08-18T05:01:33.021Z,99.90
2023-08-18T05:13:48.438Z,99.90
2023-08-18T05:18:42.696Z,99.90
2023-08-18T05:23:36.701Z,99.90
2023-08-18T05:31:00.538Z,99.90
2023-08-18T05:33:27.297Z,99.90
2023-08-18T05:38:21.142Z,99.90
2023-08-18T05:40:53.651Z,99.90
2023-08-18T05:43:20.738Z,99.90
2023-08-18T05:45:48.206Z,99.90
2023-08-18T05:48:15.357Z,99.90
2023-08-18T05:53:09.275Z,99.90
2023-08-18T05:58:05.066Z,99.90
2023-08-18T06:00:32.561Z,99.90
2023-08-18T06:05:28.746Z,99.90
2023-08-18T06:07:56.338Z,99.90
2023-08-18T06:12:50.702Z,99.90
2023-08-18T06:15:22.073Z,99.90
2023-08-18T06:17:49.250Z,99.90
2023-08-18T06:20:16.580Z,99.90
2023-08-18T06:22:43.541Z,99.90
2023-08-18T06:30:06.755Z,99.90
2023-08-18T06:32:33.704Z,99.90
2023-08-18T06:35:00.533Z,99.90
2023-08-18T06:37:27.668Z,99.90
2023-08-18T06:39:54.781Z,99.90
2023-08-18T06:42:21.593Z,99.90
2023-08-18T06:49:42.788Z,99.90
2023-08-18T06:54:36.688Z,99.90
2023-08-18T06:59:30.626Z,99.90
2023-08-18T07:01:57.343Z,99.90
2023-08-18T07:04:24.146Z,99.90
2023-08-18T07:06:51.013Z,99.90
2023-08-18T07:09:17.699Z,99.90
2023-08-18T07:14:12.313Z,99.90
2023-08-18T07:16:38.998Z,99.90
2023-08-18T07:19:05.785Z,99.90
2023-08-18T07:21:32.495Z,99.90
2023-08-18T07:31:20.870Z,99.90
2023-08-18T07:33:47.929Z,99.90
2023-08-18T07:36:15.229Z,99.90
2023-08-18T07:38:41.954Z,99.90
2023-08-18T07:41:08.789Z,99.90
2023-08-18T07:43:35.517Z,99.90
2023-08-18T07:46:02.336Z,99.90
2023-08-18T07:50:57.045Z,99.90
2023-08-18T07:53:23.804Z,99.90
2023-08-18T07:58:17.900Z,99.90
2023-08-18T08:03:12.116Z,99.90
2023-08-18T08:05:39.398Z,99.90
2023-08-18T08:08:06.986Z,99.90
2023-08-18T08:10:33.907Z,99.90
2023-08-18T08:15:28.090Z,99.90
2023-08-18T08:17:54.927Z,99.90
2023-08-18T08:20:22.119Z,99.90
2023-08-18T08:22:50.210Z,99.90
2023-08-18T08:25:18.549Z,99.90
2023-08-18T08:27:45.947Z,99.90
2023-08-18T08:30:30.338Z,99.90
2023-08-18T08:33:01.831Z,99.90
2023-08-18T08:35:29.694Z,99.90
2023-08-18T08:37:57.759Z,99.90
2023-08-18T08:40:25.048Z,99.90
2023-08-18T08:42:55.212Z,99.90
2023-08-18T08:45:23.570Z,99.90
2023-08-18T08:47:51.532Z,99.90
2023-08-18T08:50:19.209Z,99.90
2023-08-18T08:52:50.030Z,99.90
2023-08-18T08:55:19.633Z,99.90
2023-08-18T08:57:46.753Z,99.90
2023-08-18T09:00:15.753Z,99.90
2023-08-18T09:02:44.639Z,99.90
2023-08-18T09:05:12.057Z,99.90
2023-08-18T09:07:38.947Z,99.90
2023-08-18T09:10:07.242Z,99.90
2023-08-18T09:12:35.228Z,99.90
2023-08-18T09:15:02.701Z,99.90
2023-08-18T09:17:32.862Z,99.90
2023-08-18T09:20:00.993Z,99.90
2023-08-18T09:22:29.626Z,99.90
2023-08-18T09:24:58.010Z,99.90
2023-08-18T09:27:24.998Z,99.90
2023-08-18T09:29:53.442Z,99.90
2023-08-18T09:32:22.921Z,99.90
2023-08-18T09:34:50.270Z,99.90
2023-08-18T09:37:24.484Z,99.90
2023-08-18T09:39:53.705Z,99.90
2023-08-18T09:42:20.420Z,99.90
2023-08-18T09:44:47.118Z,99.90
2023-08-18T09:47:16.067Z,99.90
2023-08-18T09:49:47.699Z,99.90
2023-08-18T09:52:16.872Z,99.90
2023-08-18T09:54:56.152Z,99.90
2023-08-18T09:57:44.062Z,99.90
2023-08-18T10:00:12.911Z,99.90
2023-08-18T10:02:44.116Z,99.90
2023-08-18T10:05:13.525Z,99.90
2023-08-18T10:07:40.976Z,99.90
2023-08-18T10:10:09.178Z,99.90
2023-08-18T10:12:35.911Z,99.90
2023-08-18T10:15:02.885Z,99.90
2023-08-18T10:17:29.745Z,99.90
2023-08-18T10:19:59.609Z,99.90
2023-08-18T10:22:28.879Z,99.90
2023-08-18T10:24:56.631Z,99.90
2023-08-18T10:27:29.140Z,99.90
2023-08-18T10:30:16.560Z,99.90
2023-08-18T10:32:43.407Z,99.90
2023-08-18T10:35:22.454Z,99.90
2023-08-18T10:37:54.397Z,99.90
2023-08-18T10:40:31.636Z,99.90
2023-08-18T10:43:02.994Z,99.90
2023-08-18T10:45:30.724Z,99.90
2023-08-18T10:48:05.681Z,99.90
2023-08-18T10:50:37.586Z,99.90
2023-08-18T10:53:06.098Z,99.90
2023-08-18T10:55:33.693Z,99.90
2023-08-18T10:58:01.031Z,99.90
2023-08-18T11:00:36.170Z,99.90
2023-08-18T11:03:04.586Z,99.90
2023-08-18T11:05:32.692Z,99.90
2023-08-18T11:08:00.660Z,99.90
2023-08-18T11:10:28.153Z,99.90
2023-08-18T11:13:00.436Z,99.90
2023-08-18T11:15:27.616Z,99.90
2023-08-18T11:17:54.492Z,99.90
2023-08-18T11:20:22.548Z,99.90
2023-08-18T11:22:54.840Z,99.90
2023-08-18T11:25:25.311Z,99.90
2023-08-18T11:27:54.242Z,99.90
2023-08-18T11:30:22.104Z,99.90
2023-08-18T11:32:49.305Z,99.90
2023-08-18T11:35:17.373Z,99.90
2023-08-18T11:37:46.327Z,99.90
2023-08-18T11:40:20.111Z,99.90
2023-08-18T11:42:49.008Z,99.90
2023-08-18T11:45:23.731Z,99.90
2023-08-18T11:48:14.275Z,99.90
2023-08-18T11:50:43.853Z,99.90
2023-08-18T11:53:10.992Z,99.90
2023-08-18T11:55:42.877Z,99.90
2023-08-18T11:58:12.457Z,99.90
2023-08-18T12:00:40.914Z,99.90
2023-08-18T12:03:28.687Z,99.90
2023-08-18T12:05:57.521Z,99.90
2023-08-18T12:08:24.937Z,99.90
2023-08-18T12:10:54.792Z,99.90
2023-08-18T12:13:22.840Z,99.90
2023-08-18T12:15:50.085Z,99.90
2023-08-18T12:18:16.905Z,99.90
2023-08-18T12:20:43.628Z,99.90
2023-08-18T12:23:10.362Z,99.90
2023-08-18T12:25:37.067Z,99.90
2023-08-18T12:28:05.134Z,99.90
2023-08-18T12:30:31.992Z,99.90
2023-08-18T12:32:58.747Z,99.90
2023-08-18T12:35:25.549Z,99.90
2023-08-18T12:37:53.636Z,99.90
2023-08-18T12:40:20.432Z,99.90
2023-08-18T12:42:47.175Z,99.90
2023-08-18T12:45:14.184Z,99.90
2023-08-18T12:47:41.188Z,99.90
2023-08-18T12:50:09.025Z,99.90
2023-08-18T12:52:36.716Z,99.90
2023-08-18T12:55:04.890Z,99.90
2023-08-18T12:57:31.892Z,99.90
2023-08-18T12:59:58.621Z,99.90
2023-08-18T13:02:25.296Z,99.90
2023-08-18T13:04:52.060Z,99.90
2023-08-18T13:07:19.074Z,99.90
2023-08-18T13:09:45.909Z,99.90
2023-08-18T13:12:18.423Z,99.90
2023-08-18T13:14:45.738Z,99.90
2023-08-18T13:17:13.650Z,99.90
2023-08-18T13:22:10.379Z,99.90
2023-08-18T13:24:37.132Z,99.90
2023-08-18T13:27:04.098Z,99.50
2023-08-18T13:29:30.850Z,99.90
2023-08-18T13:31:57.668Z,99.90
2023-08-18T13:34:24.341Z,99.90
2023-08-18T13:36:52.071Z,99.90
2023-08-18T13:39:20.399Z,99.90
2023-08-18T13:41:48.238Z,99.90
2023-08-18T13:44:15.197Z,98.30
2023-08-18T13:46:42.600Z,42.20
2023-08-18T13:49:11.957Z,44.10
2023-08-18T13:51:42.102Z,28.20
2023-08-18T13:54:13.585Z,15.90
2023-08-18T13:56:41.130Z,50.80
2023-08-18T13:59:08.001Z,56.70
2023-08-18T14:01:35.677Z,69.60
2023-08-18T14:04:02.590Z,32.60
2023-08-18T14:06:29.347Z,19.90
2023-08-18T14:08:56.206Z,19.40
2023-08-18T14:11:22.987Z,24.90
2023-08-18T14:13:49.702Z,11.50
2023-08-18T14:16:16.424Z,1.00
2023-08-18T14:18:43.227Z,12.90
2023-08-18T14:21:09.925Z,1.00
2023-08-18T14:23:37.573Z,1.00
2023-08-18T14:26:04.756Z,1.00
2023-08-18T14:28:31.559Z,1.00
2023-08-18T14:30:58.320Z,1.00
2023-08-18T14:33:39.369Z,1.00
2023-08-18T14:36:11.936Z,1.00
2023-08-18T14:38:38.707Z,1.00
2023-08-18T14:41:06.769Z,1.00
2023-08-18T14:43:33.747Z,1.00
2023-08-18T14:46:00.603Z,1.00
2023-08-18T14:48:30.545Z,1.00
2023-08-18T14:50:57.865Z,1.00
2023-08-18T14:53:24.770Z,1.00
2023-08-18T14:55:52.760Z,7.00
2023-08-18T14:58:30.138Z,1.00
2023-08-18T15:00:57.103Z,1.00
2023-08-18T15:03:24.360Z,3.40
2023-08-18T15:05:51.299Z,24.30
2023-08-18T15:08:18.182Z,12.30
2023-08-18T15:10:46.318Z,10.80
2023-08-18T15:13:13.058Z,1.00
2023-08-18T15:15:39.828Z,1.00
2023-08-18T15:18:06.830Z,1.00
2023-08-18T15:20:34.108Z,1.00
2023-08-18T15:23:00.825Z,1.00
2023-08-18T15:25:27.656Z,1.00
2023-08-18T15:27:54.962Z,1.00
2023-08-18T15:30:22.693Z,1.00
2023-08-18T15:32:50.559Z,1.00
2023-08-18T15:35:17.381Z,1.00
2023-08-18T15:37:44.088Z,1.00
2023-08-18T15:40:11.119Z,1.00
2023-08-18T15:42:38.099Z,1.00
2023-08-18T15:45:05.245Z,1.00
2023-08-18T15:47:32.303Z,1.00
2023-08-18T15:49:59.356Z,1.00
2023-08-18T15:52:26.042Z,1.00
2023-08-18T15:54:52.719Z,1.00
2023-08-18T15:57:19.436Z,1.00
2023-08-18T15:59:46.275Z,1.00
2023-08-18T16:02:13.451Z,1.00
2023-08-18T16:04:41.600Z,1.00
2023-08-18T16:07:08.936Z,1.00
2023-08-18T16:09:35.843Z,1.00
2023-08-18T16:12:02.647Z,1.00
2023-08-18T16:15:16.615Z,1.00
2023-08-18T16:17:16.105Z,1.00
2023-08-18T16:19:42.886Z,1.00
2023-08-18T16:22:09.574Z,1.00
2023-08-18T16:24:37.082Z,1.00
2023-08-18T16:27:03.873Z,1.00
2023-08-18T16:29:30.772Z,1.00
2023-08-18T16:31:57.648Z,1.00
2023-08-18T16:34:28.487Z,1.00
2023-08-18T16:36:56.827Z,1.00
2023-08-18T16:39:23.676Z,1.00
2023-08-18T16:41:50.491Z,1.00
2023-08-18T16:44:17.236Z,1.00
2023-08-18T16:46:43.942Z,6.40
2023-08-18T16:49:10.707Z,2.20
2023-08-18T16:51:37.540Z,20.00
2023-08-18T16:54:04.457Z,19.80
2023-08-18T16:56:31.148Z,33.90
2023-08-18T16:58:57.868Z,25.40
2023-08-18T17:01:24.627Z,21.00
2023-08-18T17:03:51.781Z,38.20
2023-08-18T17:06:18.587Z,77.40
2023-08-18T17:08:45.498Z,71.70
2023-08-18T17:11:12.152Z,60.80
2023-08-18T17:13:38.909Z,93.30
2023-08-18T17:16:05.662Z,99.90
2023-08-18T17:18:32.460Z,99.90
2023-08-18T17:20:59.180Z,99.90
2023-08-18T17:23:25.903Z,99.90
2023-08-18T17:25:54.538Z,99.90
2023-08-18T17:28:21.414Z,99.90
2023-08-18T17:30:48.372Z,99.90
2023-08-18T17:33:15.380Z,99.90
2023-08-18T17:35:45.429Z,99.90
2023-08-18T17:38:12.455Z,99.90
2023-08-18T17:40:39.879Z,99.90
2023-08-18T17:43:06.849Z,99.90
2023-08-18T17:45:35.947Z,99.90
2023-08-18T17:48:02.842Z,99.90
2023-08-18T17:50:29.604Z,99.90
2023-08-18T17:52:57.719Z,99.90
2023-08-18T17:55:24.960Z,99.90
2023-08-18T17:57:51.922Z,99.90
2023-08-18T18:00:19.039Z,99.90
2023-08-18T18:02:45.983Z,99.90
2023-08-18T18:05:14.914Z,99.90
2023-08-18T18:07:42.113Z,99.90
2023-08-18T18:10:09.268Z,99.90
2023-08-18T18:12:36.044Z,99.90
2023-08-18T18:15:02.947Z,99.90
2023-08-18T18:17:33.240Z,99.90
2023-08-18T18:20:00.187Z,99.90
2023-08-18T18:22:26.958Z,99.90
2023-08-18T18:24:54.413Z,99.90
2023-08-18T18:27:21.120Z,99.90
2023-08-18T18:29:48.232Z,99.90
2023-08-18T18:32:14.947Z,99.90
2023-08-18T18:34:41.751Z,99.90
2023-08-18T18:37:09.940Z,99.90
2023-08-18T18:39:37.096Z,99.90
2023-08-18T18:42:06.690Z,99.90
2023-08-18T18:44:36.336Z,99.90
2023-08-18T18:49:30.953Z,99.90
2023-08-18T18:51:57.659Z,99.90
2023-08-18T18:54:24.906Z,99.90
2023-08-18T18:56:51.695Z,99.90
2023-08-18T18:59:18.997Z,99.90
2023-08-18T19:01:45.805Z,99.90
2023-08-18T19:04:12.606Z,99.90
2023-08-18T19:06:39.385Z,99.90
2023-08-18T19:09:06.224Z,99.90
2023-08-18T19:11:32.917Z,99.90
2023-08-18T19:13:59.623Z,99.90
2023-08-18T19:16:26.301Z,99.90
2023-08-18T19:18:52.984Z,99.90
2023-08-18T19:21:19.733Z,99.90
2023-08-18T19:23:47.169Z,99.90
2023-08-18T19:26:13.921Z,99.90
2023-08-18T19:28:40.696Z,99.90
2023-08-18T19:31:07.817Z,99.90
2023-08-18T19:33:34.793Z,99.90
2023-08-18T19:36:01.639Z,99.90
2023-08-18T19:38:28.447Z,99.90
2023-08-18T19:40:55.637Z,99.90
2023-08-18T19:43:22.663Z,99.90
2023-08-18T19:45:57.754Z,99.90
2023-08-18T19:48:25.407Z,99.90
2023-08-18T19:50:53.816Z,99.90
2023-08-18T19:53:21.664Z,99.90
2023-08-18T19:55:49.706Z,99.90
2023-08-18T19:58:17.895Z,99.90
2023-08-18T20:00:46.128Z,99.90
2023-08-18T20:03:13.395Z,99.90
2023-08-18T20:05:40.184Z,99.90
2023-08-18T20:08:07.048Z,99.90
2023-08-18T20:10:34.427Z,99.90
2023-08-18T20:13:01.173Z,99.90
2023-08-18T20:15:28.126Z,99.90
2023-08-18T20:17:54.917Z,99.90
2023-08-18T20:20:21.714Z,99.90
2023-08-18T20:22:48.429Z,99.90
2023-08-18T20:25:15.190Z,99.90
2023-08-18T20:27:42.042Z,99.90
2023-08-18T20:30:09.059Z,99.90
2023-08-18T20:32:37.354Z,99.90
2023-08-18T20:35:05.555Z,99.90
2023-08-18T20:37:32.292Z,99.90
2023-08-18T20:39:59.023Z,99.90
2023-08-18T20:42:25.981Z,99.90
2023-08-18T20:44:53.210Z,99.90
2023-08-18T20:47:19.967Z,99.90
2023-08-18T20:49:46.787Z,99.90
2023-08-18T20:52:13.478Z,99.90
2023-08-18T20:54:40.200Z,99.90
2023-08-18T20:57:06.909Z,99.90
2023-08-18T20:59:33.615Z,99.90
2023-08-18T21:02:00.463Z,99.90
2023-08-18T21:04:28.274Z,99.90
2023-08-18T21:06:55.045Z,99.90
2023-08-18T21:09:23.882Z,99.90
2023-08-18T21:11:50.997Z,99.90
2023-08-18T21:14:17.744Z,99.90
2023-08-18T21:16:44.479Z,99.90
2023-08-18T21:19:11.284Z,99.90
2023-08-18T21:21:38.150Z,99.90
2023-08-18T21:24:07.176Z,99.90
2023-08-18T21:26:34.386Z,99.90
2023-08-18T21:29:01.358Z,99.90
2023-08-18T21:33:55.445Z,99.90
2023-08-18T21:36:25.299Z,99.90
2023-08-18T21:38:52.996Z,99.90
2023-08-18T21:41:20.000Z,99.90
2023-08-18T21:43:46.779Z,99.90
2023-08-18T21:46:13.564Z,99.90
2023-08-18T21:48:41.772Z,99.90
2023-08-18T21:51:09.691Z,99.90
2023-08-18T21:53:36.539Z,99.90
2023-08-18T21:56:04.440Z,99.90
2023-08-18T21:58:31.987Z,99.90
2023-08-18T22:00:59.782Z,99.90
2023-08-18T22:03:27.017Z,99.90
2023-08-18T22:05:54.615Z,99.90
2023-08-18T22:08:21.321Z,99.90
2023-08-18T22:10:48.061Z,99.90
2023-08-18T22:13:14.925Z,99.90
2023-08-18T22:15:41.646Z,99.90
2023-08-18T22:18:08.450Z,99.90
2023-08-18T22:20:35.783Z,99.90
2023-08-18T22:23:02.552Z,99.90
2023-08-18T22:25:29.838Z,99.90
2023-08-18T22:27:57.429Z,99.90
2023-08-18T22:30:24.108Z,99.90
2023-08-18T22:32:50.846Z,99.90
2023-08-18T22:35:17.620Z,99.90
2023-08-18T22:37:44.822Z,99.90
2023-08-18T22:40:12.743Z,99.90
2023-08-18T22:42:39.655Z,99.90
2023-08-18T22:45:09.118Z,99.90
2023-08-18T22:47:39.736Z,99.90
2023-08-18T22:50:07.240Z,99.90
2023-08-18T22:52:34.709Z,99.90
2023-08-18T22:55:02.030Z,99.90
2023-08-18T22:57:29.023Z,99.90
2023-08-18T22:59:56.275Z,99.90
2023-08-18T23:02:23.144Z,99.90
2023-08-18T23:04:49.885Z,99.90
2023-08-18T23:07:18.433Z,99.90
2023-08-18T23:09:45.905Z,99.90
2023-08-18T23:12:15.571Z,99.90
2023-08-18T23:14:42.431Z,99.90
2023-08-18T23:17:09.213Z,99.90
2023-08-18T23:19:36.016Z,99.90
2023-08-18T23:22:05.274Z,99.90
2023-08-18T23:24:32.260Z,99.90
2023-08-18T23:26:58.983Z,99.90
2023-08-18T23:29:25.868Z,99.90
2023-08-18T23:31:52.586Z,99.90
2023-08-18T23:34:20.766Z,99.90
2023-08-18T23:36:52.692Z,99.90
2023-08-18T23:39:20.184Z,99.90
2023-08-18T23:41:47.790Z,99.90
2023-08-18T23:44:14.548Z,99.90
2023-08-18T23:46:41.356Z,99.90
2023-08-18T23:49:08.184Z,99.90
2023-08-18T23:51:35.015Z,99.90
2023-08-18T23:54:01.811Z,99.90
2023-08-18T23:56:28.635Z,99.90
2023-08-18T23:58:55.362Z,99.90
